Flight Track Log - Related Links

Times and Time Zones

All times are in EDT time to prevent confusion due to time zone crossing. See the UAL582 flight status page for this flight to view local times or setup timezone preferences in your user account.

Time Position Orientation Groundspeed Altitude Reporting Facility
EDT Latitude Longitude Course Direction KTS MPH feet Rate Location/Type
Fri 05:35:50 PM 43.6500 -79.6833 270° West 190 219 2,500  Level Toronto Center
Fri 05:36:50 PM 43.6167 -79.7667 241° Southwest 230 265 4,900 2,250 Climbing Toronto Center
Fri 05:37:50 PM 43.6333 -79.8667 283° West 260 299 7,000 2,850 Climbing Toronto Center
Fri 05:38:00 PM 43.7106 -80.0932 277° West  Level FlightAware Approximate
Fri 05:38:50 PM 43.6500 -79.9500 285° West 270 311 10,600  Level Toronto Center
Fri 05:39:00 PM 43.7167 -80.2135 270° West  Level FlightAware Approximate
Fri 05:39:50 PM 43.6667 -80.0667 281° West 290 334 13,400  Level Toronto Center
Fri 05:40:00 PM 43.7273 -80.3334 277° West  Level FlightAware Approximate
Fri 05:40:50 PM 43.6833 -80.1833 281° West 300 345 16,500  Level Toronto Center
Fri 05:41:00 PM 43.7334 -80.4538 270° West  Level FlightAware Approximate
Fri 05:41:50 PM 43.7000 -80.3000 281° West 320 368 18,900  Level Toronto Center
Fri 05:43:50 PM 43.7333 -80.5500 281° West 320 368 23,900 2,233 Climbing Toronto Center
Fri 05:44:50 PM 43.7333 -80.6667 270° West 330 380 25,600 1,700 Climbing Toronto Center
Fri 05:45:50 PM 43.7333 -80.8167 270° West 340 391 27,300 1,600 Climbing Toronto Center
Fri 05:46:50 PM 43.7000 -80.9500 251° West 360 414 28,800 1,600 Climbing Toronto Center
Fri 05:48:50 PM 43.6333 -81.2000 250° West 370 426 32,100 1,667 Climbing Toronto Center
Fri 05:49:50 PM 43.6000 -81.3667 255° West 370 426 33,800 950 Climbing Toronto Center
Fri 05:50:50 PM 43.5667 -81.4667 245° Southwest 360 414 34,000 100 Climbing Toronto Center
Fri 05:51:50 PM 43.5333 -81.6167 253° West 360 414 34,000  Level Toronto Center
Fri 05:52:50 PM 43.5000 -81.7500 251° West 360 414 34,000  Level Toronto Center
Fri 05:53:50 PM 43.4667 -81.8833 251° West 360 414 34,000  Level Toronto Center
Fri 05:54:50 PM 43.4167 -82.0000 239° Southwest 360 414 34,000  Level Toronto Center
Fri 05:55:50 PM 43.4000 -82.1333 260° West 360 414 34,000  Level Toronto Center
Fri 05:56:20 PM 43.3931 -82.1944 261° West 366 421 34,000  Level Cleveland Center
Fri 05:56:50 PM 43.3667 -82.2667 243° Southwest 360 414 34,000  Level Toronto Center
Fri 05:57:50 PM 43.3333 -82.3833 249° West 370 426 34,000 -50 Level Toronto Center
Fri 05:58:50 PM 43.3000 -82.5167 251° West 370 426 33,900 -550 Descending Toronto Center
Fri 05:59:50 PM 43.2500 -82.6500 243° Southwest 380 437 32,900 -933 Descending Toronto Center
Fri 06:00:20 PM 43.2489 -82.7267 269° West 377 434 32,500 -600 Descending Cleveland Center
Fri 06:01:20 PM 43.2064 -82.8733 248° West 395 455 32,000 -250 Descending Cleveland Center
Fri 06:02:20 PM 43.1681 -83.0197 250° West 408 470 32,000  Level Cleveland Center
Fri 06:03:20 PM 43.1294 -83.1633 250° West 408 470 32,000  Level Cleveland Center
Fri 06:04:20 PM 43.0886 -83.3122 249° West 408 470 32,000 -350 Level Cleveland Center
Fri 06:05:20 PM 43.0475 -83.4583 249° West 408 470 31,300 -850 Descending Cleveland Center
Fri 06:06:20 PM 43.0042 -83.6039 248° West 414 476 30,300 -650 Descending Cleveland Center
Fri 06:07:20 PM 42.9667 -83.7553 251° West 414 476 30,000 -150 Descending Cleveland Center
Fri 06:08:20 PM 42.9500 -83.9106 262° West 414 476 30,000  Level Cleveland Center
Fri 06:09:20 PM 42.9328 -84.0686 262° West 419 482 30,000  Level Cleveland Center
Fri 06:11:11 PM 42.9103 -84.3217 263° West 363 418 30,000  Level Chicago Center
Fri 06:12:13 PM 42.8958 -84.4569 262° West 361 415 30,000  Level Chicago Center
Fri 06:13:16 PM 42.8828 -84.5922 263° West 362 417 30,000  Level Chicago Center
Fri 06:14:18 PM 42.8661 -84.7653 263° West 386 444 30,000  Level Chicago Center
Fri 06:15:20 PM 42.8489 -84.9186 261° West 410 472 30,000  Level Chicago Center
Fri 06:16:22 PM 42.8322 -85.0700 262° West 406 467 30,000  Level Chicago Center
Fri 06:17:24 PM 42.8158 -85.2325 262° West 432 497 30,000  Level Chicago Center
Fri 06:18:26 PM 42.7969 -85.3956 261° West 438 504 30,000  Level Chicago Center
Fri 06:19:28 PM 42.7756 -85.5603 260° West 440 506 30,000 -1,065 Level Chicago Center
Fri 06:20:30 PM 42.7394 -85.7556 256° West 440 506 27,800 -2,274 Descending Chicago Center
Fri 06:21:32 PM 42.7103 -85.9136 256° West 432 497 25,300 -2,352 Descending Chicago Center
Fri 06:22:35 PM 42.6825 -86.0661 256° West 419 482 22,900 -2,304 Descending Chicago Center
Fri 06:23:37 PM 42.6561 -86.2114 256° West 402 463 20,500 -1,548 Descending Chicago Center
Fri 06:24:39 PM 42.6294 -86.3517 256° West 386 444 19,700 -1,258 Descending Chicago Center
Fri 06:25:41 PM 42.6031 -86.4894 255° West 379 436 17,900 -1,694 Descending Chicago Center
Fri 06:26:43 PM 42.5778 -86.6244 256° West 369 425 16,200 -1,839 Descending Chicago Center
Fri 06:27:45 PM 42.5461 -86.7825 255° West 363 418 14,100 -1,887 Descending Chicago Center
Fri 06:28:47 PM 42.5108 -86.9056 249° West 355 409 12,300 -1,742 Descending Chicago Center
Fri 06:29:49 PM 42.4797 -87.0239 250° West 341 392 10,500 -1,113 Descending Chicago Center
Fri 06:30:51 PM 42.4458 -87.1386 248° West 330 380 10,000 -242 Descending Chicago Center
Fri 06:31:53 PM 42.4144 -87.2564 250° West 333 383 10,000  Level Chicago Center
Fri 06:32:56 PM 42.3858 -87.3603 250° West 296 341 10,000  Level Chicago Center
Fri 06:33:58 PM 42.3542 -87.4750 250° West 278 320 10,000  Level Chicago Center
Fri 06:35:00 PM 42.3139 -87.5600 237° Southwest 284 327 10,000 -339 Level Chicago Center
Fri 06:36:02 PM 42.2542 -87.6233 218° Southwest 272 313 9,300 -1,065 Descending Chicago Center
Fri 06:37:04 PM 42.1939 -87.6872 218° Southwest 274 315 7,800 -1,113 Descending Chicago Center
Fri 06:38:06 PM 42.1167 -87.7667 217° Southwest 270 311 7,000 -390 Descending Chicago TRACON
Fri 06:39:07 PM 42.0833 -87.8500 242° Southwest 285 328 7,000  Level Chicago TRACON
Fri 06:40:07 PM 42.0833 -87.9500 270° West 251 289 7,000 -50 Level Chicago TRACON
Fri 06:41:07 PM 42.1000 -88.0333 285° West 237 273 6,900 -650 Descending Chicago TRACON
Fri 06:42:07 PM 42.1000 -88.1333 270° West 237 273 5,700 -850 Descending Chicago TRACON
Fri 06:43:07 PM 42.0833 -88.2167 255° West 212 244 5,200 -800 Descending Chicago TRACON
Fri 06:44:07 PM 42.0833 -88.2833 270° West 206 237 4,100 -600 Descending Chicago TRACON
Fri 06:45:07 PM 42.0667 -88.3667 255° West 206 237 4,000 -50 Descending Chicago TRACON
Fri 06:46:07 PM 42.0667 -88.4333 270° West 206 237 4,000  Level Chicago TRACON
Fri 06:46:23 PM 42.0597 -88.4481 238° Southwest 209 241 4,000 77 Level Chicago Center
Fri 06:47:25 PM 42.0022 -88.4644 192° South 185 213 4,100  Climbing Chicago Center
Fri 06:48:27 PM 41.9850 -88.4069 112° Southeast 171 197 4,000 -48 Descending Chicago Center
Fri 06:49:29 PM 41.9817 -88.3450 94° East 171 197 4,000  Level Chicago Center
Fri 06:50:31 PM 41.9822 -88.2800 89° East 170 196 4,000  Level Chicago Center
Fri 06:51:33 PM 41.9833 -88.2169 89° East 171 197 4,000  Level Chicago Center
Fri 06:52:35 PM 41.9833 -88.1531 90° East 171 197 4,000 -416 Level Chicago Center
Fri 06:53:14 PM 41.9833 -88.1000 90° East 171 197 3,300 -970 Descending Chicago TRACON
Fri 06:54:14 PM 41.9833 -88.0333 90° East 163 188 2,400 -900 Descending Chicago TRACON

Login

Don't have an account? Register now (free) for customized features, flight alerts, and more!